Terminal Aerodrome Forecast
Issued by NWS

Home | Current Version | Previous Version | Text Only | Print | Product List | Glossary On
Versions: 1 2 3 4 5 6 7 8 9 10 11 12 13 14 15
000
FTUS45 KGJT 201738
TAFEGE
TAF
KEGE 201738Z 2018/2118 24010KT P6SM FEW110 FEW250
      TEMPO 2018/2019 24010G20KT
     FM201900 23020G30KT P6SM FEW110 FEW200
     FM210100 22009KT P6SM FEW120 FEW250
     FM210900 21005KT P6SM SKC
     FM211700 22009KT P6SM FEW140 FEW250=

USA.gov is the U.S. government's official web portal to all federal, state and local government web resources and services.